UUEE/SVO METAR and TAF weather

Enter ICAO airport designator
Station Type Date Time Source
UUEE METAR 2020/07/10 00:30 UTC NOAA

UUEE 100030Z 24003MPS CAVOK 11/08 Q1018 R24L/CLRD62 NOSIG


Station Type Date Time Source
UUEE Decoded METAR 2020/07/10 00:30 UTC NOAA

Moscow / Sheremet'Ye , Russia (UUEE) 55-59N 037-30E
Jul 09, 2020 - 08:30 PM EDT / 2020.07.10 0030 UTC
Wind: from the WSW (240 degrees) at 7 MPH (6 KT):0
Visibility: greater than 7 mile(s):0
Temperature: 51 F (11 C)
Dew Point: 46 F (8 C)
Relative Humidity: 81%
Pressure (altimeter): 30.06 in. Hg (1018 hPa)
ob: UUEE 100030Z 24003MPS CAVOK 11/08 Q1018 R24L/CLRD62 NOSIG
cycle: 0

Station Type Date Time Source
UUEE TAF 2020/07/09 21:21 UTC NOAA

TAF TAF UUEE 091955Z 0921/1021 24003MPS 6000 FEW003 SCT016 TX22/1012Z TN10/1002Z PROB40
TEMPO 0922/1004 0300 FG SCT003
BECMG 1004/1006 SCT030
TEMPO 1010/1016 -SHRA BKN016CB
BECMG 1017/1020 17005MPS

Example: see airport list